Time;durP1;ratioP1;P1;durP2;ratioP2;P2;SDS_P1;SDS_P2;PMS_P1;PMS_P2;Temp;Humidity;BMP_temperature;BMP_pressure;BME280_temperature;BME280_humidity;BME280_pressure;Samples;Min_cycle;Max_cycle;Signal;HPM_P1;HPM_P2
2022/03/09 00:01:45;;;;;;;7.42;4.80;;;;;;;-1.54;71.58;100222.70;1684101;84;22591;-80
2022/03/09 00:04:12;;;;;;;7.42;5.15;;;;;;;-1.58;71.62;100226.27;1684007;85;21001;-80
2022/03/09 00:06:40;;;;;;;6.95;4.90;;;;;;;-1.58;71.74;100229.70;1684075;85;21071;-80
2022/03/09 00:09:07;;;;;;;6.53;4.80;;;;;;;-1.56;71.80;100227.06;1678908;85;20957;-80
2022/03/09 00:11:36;;;;;;;6.08;4.60;;;;;;;-1.57;71.74;100226.66;1678787;85;20949;-81
2022/03/09 00:14:04;;;;;;;6.47;4.58;;;;;;;-1.58;71.68;100223.23;1678956;84;21452;-80
2022/03/09 00:16:32;;;;;;;8.65;5.17;;;;;;;-1.59;71.70;100225.88;1678809;85;20988;-80
2022/03/09 00:19:01;;;;;;;7.72;5.20;;;;;;;-1.62;71.60;100222.09;1678762;85;21040;-80
2022/03/09 00:21:28;;;;;;;6.22;4.60;;;;;;;-1.61;71.64;100223.78;1678679;85;20973;-80
2022/03/09 00:23:56;;;;;;;7.05;5.25;;;;;;;-1.62;71.63;100223.39;1678758;85;21601;-80
2022/03/09 00:26:24;;;;;;;7.08;4.97;;;;;;;-1.65;71.49;100226.05;1678662;85;22577;-80
2022/03/09 00:28:51;;;;;;;6.80;4.97;;;;;;;-1.68;71.42;100217.95;1678859;85;21045;-79
2022/03/09 00:31:18;;;;;;;7.03;5.17;;;;;;;-1.71;71.29;100223.67;1678691;84;20969;-80
2022/03/09 00:33:45;;;;;;;7.05;4.78;;;;;;;-1.75;71.25;100225.05;1678857;85;20959;-80
2022/03/09 00:36:12;;;;;;;6.08;4.78;;;;;;;-1.76;71.30;100218.62;1678558;85;21017;-81
2022/03/09 00:38:40;;;;;;;6.22;4.85;;;;;;;-1.74;71.37;100219.42;1678613;85;22345;-80
2022/03/09 00:41:07;;;;;;;6.97;4.72;;;;;;;-1.75;71.34;100221.16;1678517;85;20962;-80
2022/03/09 00:43:35;;;;;;;6.47;5.03;;;;;;;-1.76;71.43;100216.88;1678579;85;21001;-81
2022/03/09 00:46:02;;;;;;;7.75;5.47;;;;;;;-1.77;71.49;100220.37;1678739;85;21005;-80
2022/03/09 00:48:30;;;;;;;8.13;4.95;;;;;;;-1.75;71.54;100222.91;1678572;85;21055;-80
2022/03/09 00:50:57;;;;;;;8.00;5.50;;;;;;;-1.72;71.54;100213.77;1678588;85;23031;-80
2022/03/09 00:53:24;;;;;;;8.33;5.12;;;;;;;-1.72;71.53;100219.40;1678238;84;20953;-80
2022/03/09 00:55:56;;;;;;;8.23;5.55;;;;;;;-1.74;71.53;100225.89;1678278;85;21016;-80
2022/03/09 00:58:21;;;;;;;7.80;5.53;;;;;;;-1.78;71.43;100231.62;1711848;83;21029;-80
2022/03/09 01:00:49;;;;;;;8.13;5.58;;;;;;;-1.83;71.50;100219.29;1713141;82;21417;-80
2022/03/09 01:03:16;;;;;;;8.85;5.30;;;;;;;-1.85;71.58;100225.39;1713057;83;21916;-80
2022/03/09 01:05:44;;;;;;;7.40;5.40;;;;;;;-1.88;71.53;100225.04;1713123;82;20966;-80
2022/03/09 01:08:12;;;;;;;6.67;4.60;;;;;;;-1.91;71.51;100230.77;1678537;84;21486;-80
2022/03/09 01:10:40;;;;;;;7.72;4.92;;;;;;;-1.94;71.61;100222.63;1678223;85;21055;-80
2022/03/09 01:13:07;;;;;;;9.38;5.78;;;;;;;-1.94;71.61;100234.28;1678449;85;21001;-80
2022/03/09 01:15:35;;;;;;;8.08;5.42;;;;;;;-1.95;71.68;100236.47;1678188;85;21968;-80
2022/03/09 01:18:02;;;;;;;7.83;5.42;;;;;;;-1.96;71.73;100231.34;1678178;84;20993;-80
2022/03/09 01:20:29;;;;;;;8.98;6.30;;;;;;;-1.97;71.74;100232.24;1678333;85;20968;-80
2022/03/09 01:22:56;;;;;;;8.75;6.15;;;;;;;-1.96;71.78;100241.25;1678284;85;21372;-80
2022/03/09 01:25:23;;;;;;;8.50;6.17;;;;;;;-1.97;71.74;100240.00;1678315;84;21506;-80
2022/03/09 01:27:50;;;;;;;8.85;6.35;;;;;;;-1.98;71.77;100240.90;1678510;84;22631;-80
2022/03/09 01:30:17;;;;;;;9.58;6.70;;;;;;;-1.98;71.76;100236.57;1678146;85;21452;-80
2022/03/09 01:32:45;;;;;;;9.98;5.92;;;;;;;-1.99;71.74;100243.94;1678427;85;21622;-80
2022/03/09 01:35:12;;;;;;;8.48;6.00;;;;;;;-1.95;71.75;100244.23;1678213;84;21013;-80
2022/03/09 01:37:42;;;;;;;7.17;6.08;;;;;;;-1.95;71.64;100240.80;1678332;84;21044;-80
2022/03/09 01:40:10;;;;;;;10.32;6.65;;;;;;;-1.97;71.52;100237.42;1678380;85;21927;-80
2022/03/09 01:42:38;;;;;;;9.00;6.58;;;;;;;-1.96;71.53;100241.25;1678228;85;21002;-80
2022/03/09 01:45:08;;;;;;;7.83;5.87;;;;;;;-1.96;71.32;100241.25;1678235;85;21441;-80
2022/03/09 01:47:35;;;;;;;9.88;6.62;;;;;;;-1.99;71.16;100240.50;1678469;85;20998;-80
2022/03/09 01:50:03;;;;;;;8.43;6.55;;;;;;;-2.02;71.08;100242.75;1678302;85;21016;-80
2022/03/09 01:52:30;;;;;;;9.35;6.67;;;;;;;-2.00;71.12;100247.88;1713224;82;21854;-80
2022/03/09 01:54:57;;;;;;;8.63;6.42;;;;;;;-2.01;70.98;100244.44;1712978;83;20950;-80
2022/03/09 01:57:25;;;;;;;8.93;6.60;;;;;;;-2.06;70.83;100247.14;1678172;84;21010;-81
2022/03/09 01:59:52;;;;;;;9.23;6.58;;;;;;;-2.08;70.82;100251.53;1678500;85;21052;-80
2022/03/09 02:02:19;;;;;;;8.48;6.58;;;;;;;-2.10;70.83;100251.18;1678291;84;21006;-80
2022/03/09 02:04:47;;;;;;;10.32;6.22;;;;;;;-2.09;70.85;100253.72;1679021;84;21962;-80
2022/03/09 02:07:15;;;;;;;10.13;7.03;;;;;;;-2.08;70.82;100258.00;1678509;85;20865;-80
2022/03/09 02:09:44;;;;;;;9.10;6.17;;;;;;;-2.11;70.71;100250.78;1677791;85;21012;-80
2022/03/09 02:12:18;;;;;;;9.28;5.90;;;;;;;-2.11;70.75;100251.63;1678337;85;21012;-79
2022/03/09 02:14:50;;;;;;;9.65;6.37;;;;;;;-2.12;70.73;100259.44;1713213;82;21405;-80
2022/03/09 02:17:27;;;;;;;9.20;6.70;;;;;;;-2.13;70.75;100259.86;1678454;84;21928;-79
2022/03/09 02:19:59;;;;;;;8.35;5.95;;;;;;;-2.12;70.82;100262.03;1678711;85;21052;-80
2022/03/09 02:22:38;;;;;;;8.58;5.95;;;;;;;-2.12;70.78;100263.32;1678556;85;20997;-80
2022/03/09 02:25:12;;;;;;;9.05;6.30;;;;;;;-2.18;70.77;100267.37;1713095;83;20957;-80
2022/03/09 02:27:38;;;;;;;;;;;;;;;-2.26;70.80;100277.08;1715863;82;20930;-79
2022/03/09 02:30:07;;;;;;;8.85;5.75;;;;;;;-2.32;70.95;100278.97;1713030;83;22905;-80
2022/03/09 02:32:48;;;;;;;7.75;5.67;;;;;;;-2.36;71.08;100274.76;1678416;85;20981;-79
2022/03/09 02:35:17;;;;;;;8.38;5.70;;;;;;;-2.39;71.09;100273.56;1678365;84;21523;-79
2022/03/09 02:37:45;;;;;;;8.93;6.12;;;;;;;-2.40;71.18;100275.75;1678169;85;20985;-79
2022/03/09 02:40:14;;;;;;;8.98;5.83;;;;;;;-2.41;71.29;100279.67;1678258;85;21064;-80
2022/03/09 02:42:43;;;;;;;8.20;5.30;;;;;;;-2.40;71.30;100280.92;1678244;85;21029;-79
2022/03/09 02:45:11;;;;;;;7.97;6.00;;;;;;;-2.38;71.41;100281.72;1678148;85;20969;-79
2022/03/09 02:47:41;;;;;;;8.55;5.97;;;;;;;-2.36;71.43;100283.81;1678517;85;20962;-80
2022/03/09 02:50:09;;;;;;;7.85;5.40;;;;;;;-2.34;71.49;100288.48;1678244;84;20945;-79
2022/03/09 02:52:38;;;;;;;8.40;5.92;;;;;;;-2.31;71.57;100289.72;1677989;85;21060;-79
2022/03/09 02:55:07;;;;;;;9.05;6.15;;;;;;;-2.29;71.46;100290.12;1678132;84;21948;-79
2022/03/09 02:57:34;;;;;;;7.83;5.83;;;;;;;-2.30;71.50;100286.69;1678099;84;21040;-79
2022/03/09 03:00:04;;;;;;;8.70;5.60;;;;;;;-2.33;71.45;100285.45;1676379;85;21001;-80
2022/03/09 03:02:31;;;;;;;7.65;5.60;;;;;;;-2.35;71.50;100291.13;1710678;83;21006;-79
2022/03/09 03:05:01;;;;;;;8.28;5.62;;;;;;;-2.34;71.56;100282.02;1711983;83;20958;-79
2022/03/09 03:07:29;;;;;;;7.37;5.10;;;;;;;-2.32;71.55;100287.14;1712713;82;21938;-80
2022/03/09 03:09:58;;;;;;;9.53;5.12;;;;;;;-2.30;71.54;100289.27;1712453;83;20957;-80
2022/03/09 03:12:25;;;;;;;7.87;5.35;;;;;;;-2.30;71.52;100294.44;1712149;83;20957;-80
2022/03/09 03:14:52;;;;;;;8.18;5.75;;;;;;;-2.30;71.52;100293.15;1711506;83;21038;-80
2022/03/09 03:17:19;;;;;;;7.55;5.65;;;;;;;-2.27;71.58;100294.80;1712928;83;20958;-79
2022/03/09 03:19:47;;;;;;;9.38;5.40;;;;;;;-2.24;71.54;100289.52;1712414;82;21934;-79
2022/03/09 03:22:14;;;;;;;9.23;5.72;;;;;;;-2.22;71.50;100289.91;1711183;82;20985;-79
2022/03/09 03:24:41;;;;;;;9.63;5.92;;;;;;;-2.21;71.41;100280.41;1713029;83;21014;-80
2022/03/09 03:27:08;;;;;;;8.00;5.65;;;;;;;-2.22;71.27;100282.14;1713278;83;20954;-79
2022/03/09 03:29:35;;;;;;;8.30;5.70;;;;;;;-2.25;71.10;100287.38;1713366;82;21005;-79
2022/03/09 03:32:02;;;;;;;9.15;5.97;;;;;;;-2.31;71.07;100291.45;1712361;83;21468;-79
2022/03/09 03:34:29;;;;;;;8.60;5.60;;;;;;;-2.36;71.03;100292.02;1713638;82;20955;-79
2022/03/09 03:36:57;;;;;;;8.88;4.95;;;;;;;-2.41;70.95;100295.19;1713598;83;21449;-80
2022/03/09 03:39:24;;;;;;;7.55;5.65;;;;;;;-2.44;71.04;100289.63;1711292;83;21001;-79
2022/03/09 03:41:51;;;;;;;9.48;5.90;;;;;;;-2.47;71.10;100292.31;1712174;82;21112;-80
2022/03/09 03:44:18;;;;;;;8.90;5.92;;;;;;;-2.47;71.23;100292.31;1712737;83;21934;-79
2022/03/09 03:46:46;;;;;;;7.97;5.80;;;;;;;-2.48;71.36;100300.12;1712059;83;20930;-79
2022/03/09 03:49:13;;;;;;;9.38;6.08;;;;;;;-2.50;71.44;100303.20;1712657;83;20993;-79
2022/03/09 03:51:40;;;;;;;8.85;6.05;;;;;;;-2.53;71.52;100300.23;1712880;82;21029;-79
2022/03/09 03:54:09;;;;;;;8.60;6.05;;;;;;;-2.53;71.62;100298.94;1712307;82;21110;-80
2022/03/09 03:56:36;;;;;;;8.18;5.70;;;;;;;-2.54;71.65;100294.66;1712289;83;21844;-80
2022/03/09 03:59:04;;;;;;;9.78;6.75;;;;;;;-2.53;71.69;100304.11;1713349;83;20981;-80
2022/03/09 04:01:31;;;;;;;9.88;6.45;;;;;;;-2.56;71.66;100308.08;1676475;85;21092;-80
2022/03/09 04:03:59;;;;;;;9.10;5.97;;;;;;;-2.55;71.75;100302.45;1678053;85;21009;-80
2022/03/09 04:06:26;;;;;;;8.63;5.85;;;;;;;-2.57;71.75;100305.54;1712092;83;21420;-79
2022/03/09 04:08:54;;;;;;;9.68;6.97;;;;;;;-2.60;71.71;100310.36;1710699;84;21721;-80
2022/03/09 04:11:22;;;;;;;9.85;6.87;;;;;;;-2.60;71.75;100309.06;1711716;83;21045;-80
2022/03/09 04:13:49;;;;;;;10.23;6.45;;;;;;;-2.60;71.75;100308.62;1712510;83;20957;-80
2022/03/09 04:16:16;;;;;;;11.18;6.90;;;;;;;-2.60;71.73;100318.11;1710898;83;20954;-80
2022/03/09 04:18:44;;;;;;;10.45;7.03;;;;;;;-2.60;71.63;100328.45;1712072;83;21005;-78
2022/03/09 04:21:11;;;;;;;10.40;6.75;;;;;;;-2.62;71.60;100319.42;1711826;82;21887;-78
2022/03/09 04:23:37;;;;;;;11.93;7.80;;;;;;;-2.63;71.59;100329.36;1712828;83;20949;-80
2022/03/09 04:26:06;;;;;;;10.25;7.45;;;;;;;-2.64;71.61;100330.70;1711997;83;21049;-80
2022/03/09 04:28:33;;;;;;;9.73;7.05;;;;;;;-2.67;71.50;100335.95;1713055;83;21001;-80
2022/03/09 04:31:01;;;;;;;12.23;7.45;;;;;;;-2.68;71.61;100338.98;1712921;83;21060;-79
2022/03/09 04:33:29;;;;;;;9.13;7.05;;;;;;;-2.63;71.73;100333.23;1712152;83;22353;-80
2022/03/09 04:35:56;;;;;;;11.70;7.00;;;;;;;-2.59;71.72;100339.20;1678288;85;20843;-80
2022/03/09 04:38:23;;;;;;;10.45;7.55;;;;;;;-2.55;71.70;100347.27;1678778;85;20989;-79
2022/03/09 04:40:50;;;;;;;9.75;6.67;;;;;;;-2.56;71.59;100342.98;1678468;85;20965;-80
2022/03/09 04:43:17;;;;;;;10.32;7.33;;;;;;;-2.54;71.58;100344.23;1678120;85;21001;-80
2022/03/09 04:45:44;;;;;;;11.30;8.25;;;;;;;-2.57;71.46;100349.05;1678297;85;21951;-80
2022/03/09 04:48:11;;;;;;;10.18;7.15;;;;;;;-2.57;71.47;100350.79;1678364;85;21068;-81
2022/03/09 04:50:40;;;;;;;11.43;7.35;;;;;;;-2.56;71.51;100350.74;1678364;85;21169;-80
2022/03/09 04:53:08;;;;;;;11.22;7.72;;;;;;;-2.60;71.38;100347.41;1712039;82;21072;-79
2022/03/09 04:55:35;;;;;;;9.20;6.58;;;;;;;-2.62;71.43;100347.86;1713388;83;21068;-80
2022/03/09 04:58:03;;;;;;;10.28;7.12;;;;;;;-2.61;71.40;100348.70;1713301;83;21964;-79
2022/03/09 05:00:31;;;;;;;10.03;7.17;;;;;;;-2.61;71.28;100347.41;1713233;83;21572;-79
2022/03/09 05:02:58;;;;;;;10.18;7.00;;;;;;;-2.63;71.21;100344.88;1678739;85;21341;-80
2022/03/09 05:05:25;;;;;;;9.65;7.37;;;;;;;-2.61;71.27;100344.83;1678752;85;21149;-79
2022/03/09 05:07:53;;;;;;;11.80;7.30;;;;;;;-2.58;71.19;100346.06;1678761;84;21547;-80
2022/03/09 05:10:20;;;;;;;11.15;7.30;;;;;;;-2.61;70.96;100351.30;1679046;85;21800;-79
2022/03/09 05:12:49;;;;;;;9.30;6.65;;;;;;;-2.60;71.05;100351.28;1713310;83;20930;-79
2022/03/09 05:15:18;;;;;;;10.58;7.50;;;;;;;-2.57;71.01;100351.63;1678744;84;20958;-80
2022/03/09 05:17:45;;;;;;;9.60;7.15;;;;;;;-2.54;70.99;100354.58;1678794;85;21496;-80
2022/03/09 05:20:12;;;;;;;14.95;10.03;;;;;;;-2.52;70.91;100362.69;1713310;83;21029;-79
2022/03/09 05:22:40;;;;;;;23.95;14.40;;;;;;;-2.49;70.91;100367.80;1713391;82;21964;-80
2022/03/09 05:25:09;;;;;;;13.22;8.80;;;;;;;-2.46;70.98;100368.16;1713318;82;20955;-80
2022/03/09 05:27:37;;;;;;;13.90;8.80;;;;;;;-2.44;70.87;100369.81;1713246;82;20950;-79
2022/03/09 05:30:06;;;;;;;14.80;9.05;;;;;;;-2.49;70.75;100372.13;1713302;83;21026;-79
2022/03/09 05:32:36;;;;;;;14.10;8.83;;;;;;;-2.53;70.72;100379.09;1713335;82;20974;-79
2022/03/09 05:35:05;;;;;;;11.43;7.90;;;;;;;-2.56;70.69;100379.19;1713551;82;21938;-79
2022/03/09 05:37:39;;;;;;;13.08;8.88;;;;;;;-2.55;70.75;100374.86;1678594;84;21356;-79
2022/03/09 05:40:08;;;;;;;33.33;17.37;;;;;;;-2.55;70.80;100376.16;1678783;85;20973;-79
2022/03/09 05:42:36;;;;;;;29.23;15.95;;;;;;;-2.54;70.80;100378.70;1713203;82;20965;-80
2022/03/09 05:45:06;;;;;;;22.60;13.10;;;;;;;-2.52;70.76;100372.19;1713360;83;21002;-79
2022/03/09 05:47:34;;;;;;;14.00;8.85;;;;;;;-2.53;70.59;100370.50;1713278;83;21521;-79
2022/03/09 05:50:03;;;;;;;16.02;9.68;;;;;;;-2.55;70.38;100374.42;1713210;83;21045;-79
2022/03/09 05:52:33;;;;;;;13.05;8.70;;;;;;;-2.57;70.33;100373.61;1678749;84;21005;-80
2022/03/09 05:55:00;;;;;;;11.57;8.03;;;;;;;-2.56;70.40;100380.48;1676687;85;20981;-80
2022/03/09 05:57:27;;;;;;;10.90;7.40;;;;;;;-2.56;70.26;100381.77;1676375;85;21029;-80
2022/03/09 05:59:56;;;;;;;22.25;13.43;;;;;;;-2.58;70.32;100386.14;1677400;85;21947;-80
2022/03/09 06:02:23;;;;;;;14.55;9.03;;;;;;;-2.54;70.31;100390.78;1712751;83;20993;-80
2022/03/09 06:04:50;;;;;;;19.82;12.70;;;;;;;-2.52;70.28;100395.02;1711416;82;20958;-80
2022/03/09 06:07:17;;;;;;;14.68;8.65;;;;;;;-2.50;70.20;100401.02;1712127;83;21470;-80
2022/03/09 06:09:45;;;;;;;17.32;11.22;;;;;;;-2.51;70.09;100399.33;1711793;83;21049;-80
2022/03/09 06:12:12;;;;;;;15.35;10.32;;;;;;;-2.49;70.13;100400.13;1712307;82;21911;-79
2022/03/09 06:14:40;;;;;;;19.82;13.13;;;;;;;-2.46;70.05;100403.92;1712168;83;21353;-79
2022/03/09 06:17:07;;;;;;;22.82;14.33;;;;;;;-2.42;70.15;100408.56;1711764;83;20958;-79
2022/03/09 06:19:35;;;;;;;23.22;14.83;;;;;;;-2.32;70.31;100397.08;1712528;82;21416;-79
2022/03/09 06:22:03;;;;;;;14.28;9.90;;;;;;;-2.31;69.98;100400.11;1711448;82;21556;-80
2022/03/09 06:24:30;;;;;;;13.55;8.63;;;;;;;-2.28;70.07;100408.22;1712492;83;21774;-79
2022/03/09 06:26:58;;;;;;;10.45;7.87;;;;;;;-2.29;69.91;100409.96;1712267;83;20950;-77
2022/03/09 06:29:26;;;;;;;12.07;8.28;;;;;;;-2.29;69.86;100407.81;1712782;82;21362;-78
2022/03/09 06:31:54;;;;;;;12.28;9.10;;;;;;;-2.22;70.05;100405.45;1711992;83;21186;-78
2022/03/09 06:34:21;;;;;;;10.63;8.10;;;;;;;-2.14;70.21;100412.57;1711638;82;21096;-78
2022/03/09 06:36:48;;;;;;;11.33;7.60;;;;;;;-2.09;69.79;100405.10;1677806;85;21919;-79
2022/03/09 06:39:16;;;;;;;12.55;8.48;;;;;;;-2.10;69.69;100399.52;1678177;85;20974;-78
2022/03/09 06:41:44;;;;;;;11.95;7.58;;;;;;;-2.21;69.17;100413.65;1712268;82;21420;-79
2022/03/09 06:44:12;;;;;;;10.98;7.47;;;;;;;-2.32;69.26;100409.61;1711293;83;21082;-79
2022/03/09 06:46:41;;;;;;;11.60;8.20;;;;;;;-2.36;69.28;100411.00;1678187;85;21360;-79
2022/03/09 06:49:08;;;;;;;11.43;8.50;;;;;;;-2.42;69.32;100415.03;1711829;83;22011;-79
2022/03/09 06:51:35;;;;;;;10.15;7.87;;;;;;;-2.43;69.43;100423.67;1676909;85;21072;-79
2022/03/09 06:54:02;;;;;;;11.15;8.05;;;;;;;-2.46;69.44;100415.56;1678368;85;21084;-79
2022/03/09 06:56:29;;;;;;;11.30;8.08;;;;;;;-2.48;69.55;100432.02;1713020;83;20970;-79
2022/03/09 06:58:56;;;;;;;10.85;7.33;;;;;;;-2.51;69.52;100418.72;1712784;83;20957;-80
2022/03/09 07:01:23;;;;;;;10.03;7.05;;;;;;;-2.48;69.55;100430.72;1710706;83;21905;-79
2022/03/09 07:03:51;;;;;;;11.35;7.62;;;;;;;-2.50;69.48;100426.88;1710646;83;21089;-80
2022/03/09 07:06:18;;;;;;;9.63;6.95;;;;;;;-2.48;69.64;100423.81;1676320;85;20961;-80
2022/03/09 07:08:45;;;;;;;11.53;7.10;;;;;;;-2.42;69.61;100429.25;1677785;85;21000;-80
2022/03/09 07:11:12;;;;;;;11.10;7.33;;;;;;;-2.38;69.49;100423.98;1678618;85;21013;-80
2022/03/09 07:13:41;;;;;;;11.10;7.95;;;;;;;-2.32;69.44;100422.95;1678407;85;21481;-80
2022/03/09 07:16:09;;;;;;;9.38;6.70;;;;;;;-2.34;69.27;100428.17;1678102;85;21424;-80
2022/03/09 07:18:36;;;;;;;9.00;7.10;;;;;;;-2.26;69.25;100432.30;1678408;85;21089;-78
2022/03/09 07:21:03;;;;;;;12.35;7.80;;;;;;;-2.20;69.32;100428.28;1678193;85;21001;-78
2022/03/09 07:23:32;;;;;;;10.18;6.95;;;;;;;-2.12;69.25;100432.36;1678321;85;21048;-78
2022/03/09 07:26:00;;;;;;;10.13;7.63;;;;;;;-2.08;68.91;100435.27;1678331;85;21978;-79
2022/03/09 07:28:27;;;;;;;9.10;6.67;;;;;;;-2.08;68.77;100437.84;1679005;85;20937;-79
2022/03/09 07:30:54;;;;;;;13.10;7.67;;;;;;;-2.03;68.83;100438.59;1713181;83;21009;-79
2022/03/09 07:33:22;;;;;;;11.12;7.67;;;;;;;-1.97;68.77;100440.15;1711878;82;20986;-79
2022/03/09 07:35:50;;;;;;;9.50;7.15;;;;;;;-1.93;68.44;100434.43;1710697;84;20958;-79
2022/03/09 07:38:17;;;;;;;9.30;6.78;;;;;;;-1.88;68.34;100432.13;1710658;84;22534;-78
2022/03/09 07:40:44;;;;;;;11.03;7.40;;;;;;;-1.84;68.20;100435.47;1710635;82;20986;-79
2022/03/09 07:43:11;;;;;;;9.65;7.05;;;;;;;-1.84;67.95;100434.18;1711155;84;21045;-79
2022/03/09 07:45:40;;;;;;;11.08;7.33;;;;;;;-1.82;67.92;100430.68;1679211;85;21185;-79
2022/03/09 07:48:09;;;;;;;10.48;6.92;;;;;;;-1.79;67.81;100429.29;1713397;82;20985;-79
2022/03/09 07:50:36;;;;;;;9.63;6.92;;;;;;;-1.74;67.79;100432.62;1713135;83;22569;-79
2022/03/09 07:53:07;;;;;;;11.33;7.10;;;;;;;-1.65;67.91;100440.98;1713174;83;21456;-79
2022/03/09 07:55:35;;;;;;;9.05;6.28;;;;;;;-1.54;68.00;100433.79;1700313;83;21005;-79
2022/03/09 07:58:02;;;;;;;9.85;6.42;;;;;;;-1.49;67.50;100438.38;1712817;83;20993;-79
2022/03/09 08:00:30;;;;;;;9.08;5.92;;;;;;;-1.51;67.08;100438.42;1712503;83;20998;-79
2022/03/09 08:02:57;;;;;;;9.40;6.45;;;;;;;-1.51;66.99;100433.69;1711908;82;21822;-79
2022/03/09 08:05:24;;;;;;;8.10;5.67;;;;;;;-1.48;66.81;100434.44;1712288;83;21049;-79
2022/03/09 08:07:51;;;;;;;9.03;5.90;;;;;;;-1.42;66.26;100437.77;1677568;84;21044;-79
2022/03/09 08:10:20;;;;;;;8.15;5.95;;;;;;;-1.41;66.08;100432.53;1678311;85;21010;-79
2022/03/09 08:12:47;;;;;;;8.10;5.70;;;;;;;-1.31;66.08;100427.48;1678966;84;21032;-80
2022/03/09 08:15:14;;;;;;;7.28;5.78;;;;;;;-1.23;65.59;100434.58;1678549;85;22268;-79
2022/03/09 08:17:43;;;;;;;9.48;5.83;;;;;;;-1.17;65.60;100435.67;1713583;82;21484;-80
2022/03/09 08:20:12;;;;;;;9.28;5.50;;;;;;;-1.10;65.36;100433.75;1712163;83;21005;-79
2022/03/09 08:22:42;;;;;;;7.20;5.08;;;;;;;-1.07;65.21;100434.94;1712489;83;20970;-79
2022/03/09 08:25:10;;;;;;;7.67;5.12;;;;;;;-1.06;64.80;100431.90;1713025;83;21093;-79
2022/03/09 08:27:37;;;;;;;8.50;6.25;;;;;;;-1.07;64.56;100428.46;1711961;82;21910;-80
2022/03/09 08:30:07;;;;;;;8.88;5.80;;;;;;;-1.04;64.72;100435.31;1713052;82;21037;-79
2022/03/09 08:32:35;;;;;;;8.80;6.22;;;;;;;-0.97;64.57;100438.09;1712246;83;21049;-79
2022/03/09 08:35:05;;;;;;;7.20;5.70;;;;;;;-0.94;64.42;100433.69;1676782;85;21008;-79
2022/03/09 08:37:33;;;;;;;7.95;6.10;;;;;;;-0.91;64.35;100432.28;1678479;85;21009;-80
2022/03/09 08:40:00;;;;;;;8.28;6.10;;;;;;;-0.89;64.32;100434.38;1713156;83;22391;-79
2022/03/09 08:42:28;;;;;;;7.53;6.03;;;;;;;-0.82;64.62;100440.67;1713218;83;20997;-79
2022/03/09 08:44:54;;;;;;;8.40;6.17;;;;;;;-0.74;64.42;100438.23;1710888;82;21005;-79
2022/03/09 08:47:22;;;;;;;8.08;6.00;;;;;;;-0.70;64.16;100445.01;1710783;83;21072;-79
2022/03/09 08:49:49;;;;;;;8.55;6.33;;;;;;;-0.73;63.66;100444.27;1712270;83;21005;-80
2022/03/09 08:52:16;;;;;;;9.35;6.28;;;;;;;-0.75;63.84;100443.03;1713284;83;21978;-79
2022/03/09 08:54:44;;;;;;;9.13;6.90;;;;;;;-0.63;64.17;100443.08;1712117;83;21447;-81
2022/03/09 08:57:13;;;;;;;9.53;6.20;;;;;;;-0.50;63.70;100442.22;1676292;85;21049;-79
2022/03/09 08:59:45;;;;;;;9.43;5.78;;;;;;;-0.53;63.15;100441.03;1711403;83;20946;-80
2022/03/09 09:02:12;;;;;;;8.75;5.95;;;;;;;-0.58;63.14;100442.47;1678634;85;21594;-79
2022/03/09 09:04:39;;;;;;;7.28;5.85;;;;;;;-0.54;63.40;100438.05;1712585;83;21890;-79
2022/03/09 09:07:07;;;;;;;9.15;6.10;;;;;;;-0.44;63.58;100437.69;1713439;83;20882;-79
2022/03/09 09:09:36;;;;;;;8.58;6.45;;;;;;;-0.30;63.67;100437.21;1711547;83;21006;-79
2022/03/09 09:12:04;;;;;;;9.40;5.87;;;;;;;-0.13;63.81;100433.59;1713637;82;20998;-79
2022/03/09 09:14:32;;;;;;;7.70;5.62;;;;;;;-0.02;63.28;100444.91;1676299;85;21044;-78
2022/03/09 09:16:59;;;;;;;7.08;5.55;;;;;;;0.08;62.91;100442.84;1678039;84;22563;-80
2022/03/09 09:19:28;;;;;;;7.28;5.45;;;;;;;0.12;62.59;100441.84;1712678;82;21560;-79
2022/03/09 09:21:56;;;;;;;10.28;5.50;;;;;;;0.15;61.96;100441.27;1710789;83;21378;-79
2022/03/09 09:24:24;;;;;;;9.28;5.85;;;;;;;0.01;61.49;100442.67;1676272;84;21049;-79
2022/03/09 09:26:51;;;;;;;7.50;6.00;;;;;;;-0.07;61.61;100440.34;1676349;85;20962;-80
2022/03/09 09:29:20;;;;;;;7.55;5.60;;;;;;;-0.04;62.10;100443.67;1677612;85;21955;-78
2022/03/09 09:31:48;;;;;;;9.63;5.42;;;;;;;0.02;61.92;100448.27;1677892;85;20994;-79
2022/03/09 09:34:16;;;;;;;8.23;5.58;;;;;;;0.05;61.69;100448.14;1678359;85;21060;-79
2022/03/09 09:36:46;;;;;;;7.03;5.33;;;;;;;0.07;61.50;100447.63;1712560;83;21045;-79
2022/03/09 09:39:14;;;;;;;9.18;6.00;;;;;;;0.16;61.70;100442.12;1699119;82;20969;-77
2022/03/09 09:41:47;;;;;;;6.85;5.08;;;;;;;0.28;61.86;100442.52;1711632;83;21972;-78
2022/03/09 09:44:14;;;;;;;7.62;5.55;;;;;;;0.34;60.91;100444.06;1678552;84;21001;-80
2022/03/09 09:46:43;;;;;;;8.23;5.97;;;;;;;0.27;60.86;100442.58;1713056;83;21061;-80
2022/03/09 09:49:13;;;;;;;7.83;5.70;;;;;;;0.21;61.01;100446.27;1711513;83;20969;-80
2022/03/09 09:51:43;;;;;;;8.88;5.97;;;;;;;0.20;60.78;100447.17;1658504;85;21645;-80
2022/03/09 09:54:11;;;;;;;8.08;5.67;;;;;;;0.23;60.66;100448.80;1700776;84;22629;-80
2022/03/09 09:56:39;;;;;;;7.47;5.75;;;;;;;0.19;60.34;100446.77;1652509;85;21001;-80
2022/03/09 09:59:08;;;;;;;9.13;6.10;;;;;;;0.09;60.39;100452.32;1718542;83;20965;-79
2022/03/09 10:01:36;;;;;;;9.03;5.85;;;;;;;0.04;60.73;100446.45;1681021;85;21050;-79
2022/03/09 10:04:06;;;;;;;8.28;5.97;;;;;;;0.09;61.19;100449.72;1715677;82;21513;-80
2022/03/09 10:06:37;;;;;;;7.65;5.58;;;;;;;0.12;60.43;100449.63;1718288;83;22923;-79
2022/03/09 10:09:07;;;;;;;8.48;5.58;;;;;;;0.15;61.00;100448.22;1717905;83;20981;-80
2022/03/09 10:11:54;;;;;;;8.63;5.78;;;;;;;0.15;60.39;100445.17;1679012;85;21005;-80
2022/03/09 10:14:46;;;;;;;10.80;5.67;;;;;;;0.09;60.54;100447.13;1713215;83;21017;-80
2022/03/09 10:17:15;;;;;;;8.38;5.60;;;;;;;0.11;60.79;100442.30;1679037;85;21008;-80
2022/03/09 10:19:47;;;;;;;7.60;5.67;;;;;;;0.21;60.82;100445.42;1713210;82;21844;-81
2022/03/09 10:22:33;;;;;;;8.23;5.70;;;;;;;0.18;60.08;100446.80;1678892;85;21468;-80
2022/03/09 10:25:15;;;;;;;7.20;5.40;;;;;;;0.14;60.27;100443.48;1678768;85;21069;-79
2022/03/09 10:27:50;;;;;;;7.33;5.22;;;;;;;0.24;60.66;100444.84;1713328;83;20989;-79
2022/03/09 10:30:19;;;;;;;;;;;;;;;0.42;60.64;100455.03;1681276;85;21436;-79
2022/03/09 10:32:56;;;;;;;7.78;5.33;;;;;;;0.53;60.19;100444.23;1665984;86;21800;-79
2022/03/09 10:35:39;;;;;;;7.90;5.20;;;;;;;0.53;60.13;100459.83;1678509;85;21057;-79
2022/03/09 10:38:19;;;;;;;7.20;4.80;;;;;;;0.60;60.34;100459.16;1678682;85;20975;-79
2022/03/09 10:40:51;;;;;;;6.05;4.40;;;;;;;0.68;60.02;100451.48;1675086;85;20966;-81
2022/03/09 10:43:25;;;;;;;7.25;4.30;;;;;;;0.68;59.54;100457.13;1678598;85;20966;-79
2022/03/09 10:46:12;;;;;;;5.75;4.05;;;;;;;0.70;58.74;100456.16;1678551;85;21849;-80
2022/03/09 10:49:02;;;;;;;6.10;4.33;;;;;;;0.70;58.74;100462.66;1678670;84;20966;-82
2022/03/09 10:51:42;;;;;;;6.78;4.70;;;;;;;0.74;58.86;100464.22;1678661;85;21010;-79
2022/03/09 10:54:29;;;;;;;6.15;4.33;;;;;;;0.76;59.21;100461.56;1679102;85;20973;-77
2022/03/09 10:57:10;;;;;;;6.42;4.28;;;;;;;0.77;59.02;100460.66;1662646;85;21437;-79
2022/03/09 10:59:47;;;;;;;5.65;4.17;;;;;;;0.62;58.59;100457.34;1661948;86;21931;-79
2022/03/09 11:02:21;;;;;;;7.42;4.70;;;;;;;0.57;58.80;100457.05;1663596;86;21026;-79
2022/03/09 11:05:13;;;;;;;6.17;4.00;;;;;;;0.56;59.08;100460.55;1645802;86;20998;-78
2022/03/09 11:07:41;;;;;;;6.12;4.25;;;;;;;0.52;59.03;100460.73;1645931;86;21039;-79
2022/03/09 11:10:13;;;;;;;5.00;3.60;;;;;;;0.42;58.71;100458.92;1664998;85;21419;-78
2022/03/09 11:12:41;;;;;;;7.20;4.55;;;;;;;0.43;58.71;100456.72;1667399;85;21942;-78
2022/03/09 11:15:09;;;;;;;4.92;3.87;;;;;;;0.39;59.01;100455.15;1664909;86;20963;-79
2022/03/09 11:17:38;;;;;;;6.17;3.87;;;;;;;0.43;58.55;100455.42;1665133;86;20963;-80
2022/03/09 11:20:09;;;;;;;5.10;3.70;;;;;;;0.47;58.74;100454.39;1624329;86;21042;-80
2022/03/09 11:22:36;;;;;;;6.12;4.00;;;;;;;0.70;58.46;100459.21;1665440;86;20954;-79
2022/03/09 11:25:06;;;;;;;6.03;3.87;;;;;;;0.89;57.78;100453.71;1665064;86;22243;-79
2022/03/09 11:27:33;;;;;;;5.78;3.70;;;;;;;1.02;56.77;100456.22;1665323;86;21022;-79
2022/03/09 11:30:21;;;;;;;5.55;3.75;;;;;;;1.09;56.06;100453.78;1665205;86;20975;-79
2022/03/09 11:32:50;;;;;;;5.97;3.65;;;;;;;1.19;55.94;100443.86;1717166;83;21433;-80